< < Back
Terminal Aerodrome Forecast


Current Version              Previous Versions:   1  2  3  4  5  6  7  8  9  

Terminal Aerodrome Forecast

583
FTUS42 KGSP 010500
TAFHKY
TAF
KHKY 010538Z 0106/0206 31005KT P6SM SKC
     FM010800 00000KT 5SM BR FEW250
     FM011300 VRB03KT P6SM FEW250
     FM011500 24004KT P6SM FEW050=



Latest METAR

586
SAUS70 KWBC 010800 RRR
MTRHKY
METAR KHKY 010753Z AUTO 30003KT 10SM CLR 16/14 A2994 RMK AO2 SLP118
T01560139


USA.gov is the U.S. government's official web portal to all federal, state and local government web resources and services.